createdAt,value
2022-10-22T00:02:22.202Z,2.80
2022-10-22T00:04:50.033Z,3.77
2022-10-22T00:07:18.423Z,2.70
2022-10-22T00:09:45.442Z,2.53
2022-10-22T00:12:14.030Z,2.80
2022-10-22T00:14:41.425Z,2.77
2022-10-22T00:17:11.579Z,3.20
2022-10-22T00:19:39.282Z,2.87
2022-10-22T00:22:06.822Z,3.50
2022-10-22T00:24:34.990Z,3.00
2022-10-22T00:27:02.353Z,3.30
2022-10-22T00:29:29.571Z,3.30
2022-10-22T00:31:57.094Z,2.77
2022-10-22T00:34:24.470Z,3.17
2022-10-22T00:36:52.351Z,3.33
2022-10-22T00:39:21.398Z,2.93
2022-10-22T00:41:50.388Z,3.00
2022-10-22T00:44:54.899Z,2.83
2022-10-22T00:47:24.043Z,2.80
2022-10-22T00:49:52.377Z,2.63
2022-10-22T00:52:20.061Z,2.50
2022-10-22T00:54:47.011Z,2.43
2022-10-22T00:57:14.915Z,2.33
2022-10-22T00:59:41.801Z,2.30
2022-10-22T01:02:08.685Z,2.20
2022-10-22T01:04:35.557Z,2.10
2022-10-22T01:07:02.497Z,2.00
2022-10-22T01:09:29.296Z,1.63
2022-10-22T01:12:01.981Z,1.67
2022-10-22T01:14:36.517Z,1.80
2022-10-22T01:17:35.994Z,1.63
2022-10-22T01:20:12.821Z,1.60
2022-10-22T01:23:04.709Z,1.30
2022-10-22T01:25:35.714Z,1.70
2022-10-22T01:28:17.662Z,1.70
2022-10-22T01:30:46.351Z,1.47
2022-10-22T01:33:17.807Z,1.50
2022-10-22T01:35:45.772Z,1.53
2022-10-22T01:38:17.189Z,1.20
2022-10-22T01:40:44.111Z,1.43
2022-10-22T01:43:11.698Z,1.47
2022-10-22T01:45:52.222Z,1.50
2022-10-22T01:48:43.664Z,1.53
2022-10-22T01:51:19.562Z,1.90
2022-10-22T01:54:33.852Z,1.67
2022-10-22T01:57:31.582Z,1.80
2022-10-22T02:00:09.274Z,1.50
2022-10-22T02:03:04.231Z,1.30
2022-10-22T02:05:34.164Z,1.50
2022-10-22T02:08:10.017Z,1.23
2022-10-22T02:10:42.216Z,1.20
2022-10-22T02:13:16.075Z,1.80
2022-10-22T02:15:45.640Z,1.40
2022-10-22T02:18:14.358Z,1.60
2022-10-22T02:20:42.683Z,1.37
2022-10-22T02:23:11.245Z,1.50
2022-10-22T02:25:44.410Z,2.03
2022-10-22T02:28:25.023Z,1.53
2022-10-22T02:31:00.384Z,1.17
2022-10-22T02:33:42.426Z,2.00
2022-10-22T02:36:09.701Z,1.30
2022-10-22T02:38:37.207Z,1.47
2022-10-22T02:41:04.789Z,1.53
2022-10-22T02:43:38.789Z,1.40
2022-10-22T02:46:05.704Z,1.50
2022-10-22T02:48:32.564Z,1.60
2022-10-22T02:50:59.408Z,1.70
2022-10-22T02:53:26.231Z,1.60
2022-10-22T02:55:53.135Z,1.50
2022-10-22T02:58:20.024Z,1.50
2022-10-22T03:00:46.886Z,1.50
2022-10-22T03:03:13.841Z,1.57
2022-10-22T03:05:41.156Z,1.40
2022-10-22T03:08:08.058Z,1.37
2022-10-22T03:10:35.025Z,1.27
2022-10-22T03:13:01.960Z,1.13
2022-10-22T03:17:55.645Z,1.87
2022-10-22T03:20:22.537Z,1.50
2022-10-22T03:22:49.564Z,1.57
2022-10-22T03:25:21.862Z,1.50
2022-10-22T03:27:50.107Z,1.40
2022-10-22T03:30:17.128Z,1.80
2022-10-22T03:32:43.997Z,1.40
2022-10-22T03:35:10.867Z,1.53
2022-10-22T03:37:38.555Z,1.40
2022-10-22T03:40:07.773Z,1.20
2022-10-22T03:42:34.899Z,1.50
2022-10-22T03:45:01.830Z,1.60
2022-10-22T03:47:28.681Z,1.50
2022-10-22T03:49:55.607Z,1.47
2022-10-22T03:52:22.533Z,1.50
2022-10-22T03:54:49.345Z,1.30
2022-10-22T03:57:16.352Z,1.50
2022-10-22T03:59:44.853Z,1.67
2022-10-22T04:02:13.060Z,1.20
2022-10-22T04:04:40.100Z,1.20
2022-10-22T04:07:07.715Z,1.43
2022-10-22T04:09:35.325Z,1.60
2022-10-22T04:12:02.463Z,1.60
2022-10-22T04:14:29.275Z,1.20
2022-10-22T04:16:56.125Z,1.30
2022-10-22T04:19:23.086Z,1.30
2022-10-22T04:21:49.954Z,1.20
2022-10-22T04:24:16.784Z,1.20
2022-10-22T04:26:43.636Z,1.30
2022-10-22T04:29:13.555Z,1.20
2022-10-22T04:31:43.029Z,1.27
2022-10-22T04:34:09.879Z,1.30
2022-10-22T04:36:36.750Z,1.20
2022-10-22T04:39:04.922Z,1.07
2022-10-22T04:41:35.290Z,1.20
2022-10-22T04:44:03.274Z,1.10
2022-10-22T04:46:32.632Z,1.10
2022-10-22T04:48:59.475Z,1.17
2022-10-22T04:51:27.813Z,1.33
2022-10-22T04:53:54.793Z,1.10
2022-10-22T04:56:27.562Z,1.23
2022-10-22T04:58:59.253Z,0.90
2022-10-22T05:01:39.907Z,0.93
2022-10-22T05:04:13.674Z,1.30
2022-10-22T05:06:41.090Z,1.07
2022-10-22T05:09:12.187Z,1.00
2022-10-22T05:11:41.939Z,0.90
2022-10-22T05:14:10.468Z,0.80
2022-10-22T05:16:40.739Z,1.00
2022-10-22T05:19:08.204Z,0.93
2022-10-22T05:21:35.610Z,0.90
2022-10-22T05:24:02.502Z,0.90
2022-10-22T05:26:29.753Z,0.90
2022-10-22T05:28:56.575Z,0.80
2022-10-22T05:31:23.656Z,0.80
2022-10-22T05:33:50.511Z,0.90
2022-10-22T05:36:20.390Z,1.00
2022-10-22T05:38:47.722Z,0.70
2022-10-22T05:41:20.573Z,0.90
2022-10-22T05:43:47.581Z,0.90
2022-10-22T05:46:23.130Z,1.30
2022-10-22T05:48:55.260Z,1.40
2022-10-22T05:51:23.037Z,1.00
2022-10-22T05:53:56.817Z,1.10
2022-10-22T05:56:24.648Z,0.90
2022-10-22T05:58:52.092Z,0.80
2022-10-22T06:01:28.300Z,0.70
2022-10-22T06:03:57.381Z,0.80
2022-10-22T06:06:50.141Z,0.90
2022-10-22T06:09:16.999Z,1.10
2022-10-22T06:11:44.128Z,0.90
2022-10-22T06:14:11.413Z,0.80
2022-10-22T06:16:38.806Z,0.80
2022-10-22T06:19:05.849Z,0.80
2022-10-22T06:21:33.338Z,0.90
2022-10-22T06:24:01.734Z,0.90
2022-10-22T06:26:29.634Z,1.00
2022-10-22T06:28:57.414Z,1.17
2022-10-22T06:31:26.062Z,0.87
2022-10-22T06:33:53.083Z,0.80
2022-10-22T06:36:22.590Z,0.90
2022-10-22T06:38:52.885Z,0.80
2022-10-22T06:41:19.937Z,0.90
2022-10-22T06:43:47.008Z,1.00
2022-10-22T06:46:19.055Z,1.10
2022-10-22T06:48:52.640Z,0.90
2022-10-22T06:51:21.074Z,1.30
2022-10-22T06:53:48.408Z,0.97
2022-10-22T06:56:18.585Z,0.97
2022-10-22T06:58:52.043Z,0.90
2022-10-22T07:01:23.064Z,1.10
2022-10-22T07:03:53.897Z,0.80
2022-10-22T07:06:21.759Z,0.90
2022-10-22T07:08:48.989Z,0.90
2022-10-22T07:11:19.052Z,0.80
2022-10-22T07:13:46.551Z,0.70
2022-10-22T07:16:14.103Z,1.00
2022-10-22T07:18:41.644Z,1.07
2022-10-22T07:21:10.242Z,1.00
2022-10-22T07:23:37.293Z,1.23
2022-10-22T07:26:07.390Z,1.20
2022-10-22T07:28:35.507Z,1.00
2022-10-22T07:31:02.589Z,1.30
2022-10-22T07:33:29.485Z,1.37
2022-10-22T07:36:00.967Z,1.23
2022-10-22T07:38:28.704Z,1.60
2022-10-22T07:40:55.881Z,1.10
2022-10-22T07:43:22.833Z,1.23
2022-10-22T07:45:49.980Z,1.23
2022-10-22T07:48:17.382Z,1.20
2022-10-22T07:53:16.140Z,1.37
2022-10-22T07:55:43.009Z,1.30
2022-10-22T07:58:09.885Z,1.37
2022-10-22T08:00:37.722Z,1.27
2022-10-22T08:03:04.860Z,1.07
2022-10-22T08:05:31.680Z,1.20
2022-10-22T08:07:58.549Z,1.53
2022-10-22T08:10:25.407Z,1.40
2022-10-22T08:12:52.230Z,1.27
2022-10-22T08:15:19.133Z,1.20
2022-10-22T08:17:46.000Z,1.37
2022-10-22T08:20:12.792Z,1.57
2022-10-22T08:22:39.671Z,1.50
2022-10-22T08:25:06.915Z,1.40
2022-10-22T08:27:33.830Z,1.33
2022-10-22T08:30:00.656Z,1.33
2022-10-22T08:34:59.471Z,1.40
2022-10-22T08:37:26.341Z,1.57
2022-10-22T08:39:53.188Z,1.30
2022-10-22T08:42:29.003Z,1.40
2022-10-22T08:45:16.993Z,1.60
2022-10-22T08:48:03.252Z,1.67
2022-10-22T08:50:40.905Z,1.30
2022-10-22T08:53:22.294Z,1.30
2022-10-22T08:55:52.616Z,1.53
2022-10-22T08:58:20.353Z,1.30
2022-10-22T09:00:58.391Z,1.40
2022-10-22T09:03:35.376Z,1.30
2022-10-22T09:06:11.440Z,1.20
2022-10-22T09:08:39.604Z,1.40
2022-10-22T09:11:16.198Z,1.53
2022-10-22T09:13:45.383Z,1.30
2022-10-22T09:16:19.644Z,2.00
2022-10-22T09:19:11.140Z,1.40
2022-10-22T09:21:51.029Z,1.57
2022-10-22T09:24:29.547Z,1.60
2022-10-22T09:26:59.997Z,1.30
2022-10-22T09:29:33.044Z,1.77
2022-10-22T09:31:59.882Z,1.37
2022-10-22T09:34:28.245Z,1.20
2022-10-22T09:37:06.296Z,1.27
2022-10-22T09:39:39.252Z,1.20
2022-10-22T09:42:07.320Z,1.27
2022-10-22T09:44:35.855Z,1.30
2022-10-22T09:47:42.678Z,1.10
2022-10-22T09:50:24.991Z,1.20
2022-10-22T09:53:11.276Z,1.30
2022-10-22T09:55:40.707Z,1.07
2022-10-22T09:58:13.409Z,1.50
2022-10-22T10:00:43.516Z,1.00
2022-10-22T10:03:19.007Z,1.17
2022-10-22T10:05:52.615Z,1.20
2022-10-22T10:08:19.631Z,1.17
2022-10-22T10:10:53.960Z,1.23
2022-10-22T10:13:28.992Z,1.10
2022-10-22T10:16:07.848Z,1.20
2022-10-22T10:18:51.786Z,1.10
2022-10-22T10:21:39.713Z,1.00
2022-10-22T10:24:32.933Z,1.30
2022-10-22T10:27:31.069Z,1.10
2022-10-22T10:30:15.947Z,1.30
2022-10-22T10:33:13.755Z,1.10
2022-10-22T10:35:55.375Z,1.47
2022-10-22T10:38:43.432Z,1.10
2022-10-22T10:41:28.412Z,1.30
2022-10-22T10:44:16.358Z,1.23
2022-10-22T10:47:03.534Z,1.00
2022-10-22T10:49:37.171Z,1.27
2022-10-22T10:52:21.344Z,1.10
2022-10-22T10:55:18.461Z,1.30
2022-10-22T10:57:55.905Z,1.07
2022-10-22T11:00:23.828Z,1.33
2022-10-22T11:03:09.790Z,1.10
2022-10-22T11:05:50.175Z,1.13
2022-10-22T11:08:28.904Z,1.27
2022-10-22T11:11:11.417Z,1.20
2022-10-22T11:13:57.491Z,1.43
2022-10-22T11:16:35.684Z,1.10
2022-10-22T11:19:22.880Z,0.90
2022-10-22T11:22:15.154Z,1.10
2022-10-22T11:24:50.725Z,1.30
2022-10-22T11:28:10.410Z,0.90
2022-10-22T11:30:41.700Z,0.90
2022-10-22T11:33:14.925Z,1.00
2022-10-22T11:35:44.927Z,0.90
2022-10-22T11:38:18.544Z,0.80
2022-10-22T11:41:09.722Z,0.60
2022-10-22T11:44:07.991Z,0.80
2022-10-22T11:46:45.420Z,0.90
2022-10-22T11:49:15.194Z,0.80
2022-10-22T11:51:44.585Z,0.80
2022-10-22T11:54:26.750Z,0.90
2022-10-22T11:57:16.290Z,0.83
2022-10-22T12:00:00.433Z,0.90
2022-10-22T12:02:41.371Z,0.80
2022-10-22T12:05:39.115Z,0.83
2022-10-22T12:08:26.501Z,0.77
2022-10-22T12:11:19.287Z,0.70
2022-10-22T12:14:14.645Z,0.80
2022-10-22T12:17:00.955Z,0.67
2022-10-22T12:19:27.709Z,0.70
2022-10-22T12:22:32.616Z,0.90
2022-10-22T12:25:07.658Z,0.80
2022-10-22T12:27:41.023Z,0.70
2022-10-22T12:30:22.779Z,0.60
2022-10-22T12:32:54.004Z,0.80
2022-10-22T12:35:24.116Z,0.80
2022-10-22T12:38:00.553Z,0.70
2022-10-22T12:40:34.088Z,0.80
2022-10-22T12:43:28.997Z,0.80
2022-10-22T12:45:57.846Z,0.90
2022-10-22T12:48:30.704Z,0.87
2022-10-22T12:51:01.302Z,0.83
2022-10-22T12:53:32.402Z,0.80
2022-10-22T12:56:10.652Z,0.90
2022-10-22T12:58:48.753Z,0.70
2022-10-22T13:01:17.433Z,1.10
2022-10-22T13:04:03.353Z,0.93
2022-10-22T13:06:30.263Z,0.90
2022-10-22T13:09:00.226Z,0.93
2022-10-22T13:11:58.355Z,0.80
2022-10-22T13:14:25.107Z,0.90
2022-10-22T13:17:10.234Z,0.90
2022-10-22T13:19:38.473Z,0.80
2022-10-22T13:22:05.407Z,0.80
2022-10-22T13:24:32.251Z,0.60
2022-10-22T13:26:59.079Z,0.80
2022-10-22T13:29:25.940Z,0.90
2022-10-22T13:31:54.049Z,0.90
2022-10-22T13:34:23.696Z,0.87
2022-10-22T13:36:50.741Z,0.80
2022-10-22T13:39:24.696Z,0.70
2022-10-22T13:41:51.855Z,0.77
2022-10-22T13:44:19.704Z,0.87
2022-10-22T13:46:48.423Z,0.70
2022-10-22T13:49:22.524Z,1.00
2022-10-22T13:51:51.369Z,0.90
2022-10-22T13:54:23.787Z,0.90
2022-10-22T13:56:50.652Z,1.00
2022-10-22T13:59:19.853Z,1.10
2022-10-22T14:01:49.776Z,0.97
2022-10-22T14:04:16.555Z,0.80
2022-10-22T14:06:43.491Z,0.90
2022-10-22T14:09:16.127Z,0.87
2022-10-22T14:11:43.214Z,1.00
2022-10-22T14:14:14.108Z,0.87
2022-10-22T14:16:41.099Z,0.70
2022-10-22T14:19:10.366Z,0.90
2022-10-22T14:21:38.114Z,0.90
2022-10-22T14:24:08.183Z,0.93
2022-10-22T14:26:36.466Z,1.63
2022-10-22T14:29:09.405Z,0.97
2022-10-22T14:34:12.378Z,1.17
2022-10-22T14:36:39.335Z,1.27
2022-10-22T14:39:06.246Z,1.00
2022-10-22T14:41:33.313Z,1.00
2022-10-22T14:44:00.205Z,1.03
2022-10-22T14:46:27.140Z,1.00
2022-10-22T14:48:54.003Z,1.30
2022-10-22T14:51:23.149Z,1.17
2022-10-22T14:53:50.179Z,1.20
2022-10-22T14:56:21.411Z,1.20
2022-10-22T14:58:49.386Z,1.33
2022-10-22T15:01:16.723Z,1.07
2022-10-22T15:03:43.557Z,1.03
2022-10-22T15:06:10.471Z,1.07
2022-10-22T15:08:37.334Z,1.40
2022-10-22T15:11:10.719Z,1.10
2022-10-22T15:13:37.962Z,1.30
2022-10-22T15:16:09.949Z,1.10
2022-10-22T15:18:36.856Z,2.27
2022-10-22T15:21:07.466Z,1.07
2022-10-22T15:23:34.392Z,1.23
2022-10-22T15:26:01.245Z,1.20
2022-10-22T15:28:28.034Z,1.50
2022-10-22T15:31:00.342Z,1.30
2022-10-22T15:33:28.574Z,1.20
2022-10-22T15:35:56.204Z,1.27
2022-10-22T15:41:06.342Z,1.30
2022-10-22T15:43:34.310Z,1.30
2022-10-22T15:46:13.473Z,1.20
2022-10-22T15:48:40.485Z,1.50
2022-10-22T15:51:13.768Z,1.50
2022-10-22T15:53:41.375Z,1.70
2022-10-22T15:56:08.880Z,2.20
2022-10-22T15:58:35.898Z,1.77
2022-10-22T16:01:07.206Z,1.60
2022-10-22T16:03:34.940Z,1.63
2022-10-22T16:06:02.442Z,1.70
2022-10-22T16:08:29.753Z,1.50
2022-10-22T16:10:56.689Z,1.70
2022-10-22T16:13:24.849Z,1.60
2022-10-22T16:15:52.417Z,2.30
2022-10-22T16:18:21.509Z,2.00
2022-10-22T16:20:48.389Z,1.90
2022-10-22T16:23:18.740Z,1.90
2022-10-22T16:25:46.482Z,2.00
2022-10-22T16:28:13.815Z,2.10
2022-10-22T16:30:41.728Z,1.97
2022-10-22T16:33:10.649Z,2.00
2022-10-22T16:35:43.604Z,2.27
2022-10-22T16:38:11.076Z,2.13
2022-10-22T16:40:38.198Z,2.60
2022-10-22T16:43:05.764Z,3.10
2022-10-22T16:45:32.592Z,2.13
2022-10-22T16:47:59.418Z,2.30
2022-10-22T16:50:26.278Z,2.10
2022-10-22T16:52:53.069Z,2.40
2022-10-22T16:55:19.967Z,2.60
2022-10-22T16:57:51.959Z,2.40
2022-10-22T17:00:19.475Z,2.43
2022-10-22T17:02:52.018Z,2.67
2022-10-22T17:05:19.137Z,2.17
2022-10-22T17:07:45.991Z,2.80
2022-10-22T17:10:13.123Z,2.20
2022-10-22T17:12:40.356Z,2.30
2022-10-22T17:15:07.777Z,2.63
2022-10-22T17:17:35.117Z,2.47
2022-10-22T17:20:01.971Z,3.20
2022-10-22T17:22:29.106Z,3.70
2022-10-22T17:25:35.989Z,3.90
2022-10-22T17:28:02.827Z,4.10
2022-10-22T17:30:30.414Z,3.97
2022-10-22T17:32:57.323Z,4.10
2022-10-22T17:35:24.189Z,4.00
2022-10-22T17:37:51.078Z,3.77
2022-10-22T17:40:17.997Z,3.70
2022-10-22T17:42:45.569Z,3.73
2022-10-22T17:45:12.436Z,4.33
2022-10-22T17:47:39.666Z,3.60
2022-10-22T17:50:07.184Z,4.80
2022-10-22T17:52:34.081Z,5.87
2022-10-22T17:55:00.956Z,5.03
2022-10-22T17:57:27.918Z,5.13
2022-10-22T17:59:54.773Z,4.80
2022-10-22T18:02:21.669Z,4.43
2022-10-22T18:04:52.137Z,9.27
2022-10-22T18:07:19.145Z,10.93
2022-10-22T18:09:46.124Z,19.33
2022-10-22T18:12:13.943Z,20.23
2022-10-22T18:14:40.883Z,14.70
2022-10-22T18:17:08.303Z,12.40
2022-10-22T18:19:35.343Z,4.63
2022-10-22T18:22:02.587Z,5.40
2022-10-22T18:24:29.510Z,4.63
2022-10-22T18:26:56.411Z,5.50
2022-10-22T18:29:23.241Z,6.17
2022-10-22T18:31:50.213Z,5.37
2022-10-22T18:34:20.215Z,6.70
2022-10-22T18:36:50.061Z,5.63
2022-10-22T18:39:17.133Z,5.50
2022-10-22T18:41:44.248Z,4.77
2022-10-22T18:44:13.518Z,5.20
2022-10-22T18:46:40.943Z,5.33
2022-10-22T18:49:08.599Z,5.10
2022-10-22T18:51:36.450Z,5.20
2022-10-22T18:54:05.730Z,5.47
2022-10-22T18:56:48.414Z,5.13
2022-10-22T18:59:19.030Z,4.53
2022-10-22T19:01:45.910Z,5.40
2022-10-22T19:04:13.801Z,6.40
2022-10-22T19:06:44.476Z,5.80
2022-10-22T19:09:13.753Z,5.10
2022-10-22T19:11:40.921Z,5.10
2022-10-22T19:14:07.761Z,5.23
2022-10-22T19:16:35.235Z,5.50
2022-10-22T19:19:07.455Z,5.30
2022-10-22T19:21:35.212Z,5.40
2022-10-22T19:24:02.459Z,7.20
2022-10-22T19:26:30.722Z,5.73
2022-10-22T19:28:59.611Z,7.20
2022-10-22T19:31:27.761Z,8.73
2022-10-22T19:33:55.406Z,8.23
2022-10-22T19:36:27.984Z,8.93
2022-10-22T19:38:55.314Z,8.60
2022-10-22T19:41:23.681Z,8.37
2022-10-22T19:43:52.284Z,8.33
2022-10-22T19:46:20.861Z,7.87
2022-10-22T19:48:48.762Z,8.60
2022-10-22T19:51:18.780Z,9.57
2022-10-22T19:53:45.834Z,9.40
2022-10-22T19:56:17.051Z,10.30
2022-10-22T19:58:44.692Z,12.77
2022-10-22T20:01:13.435Z,10.73
2022-10-22T20:03:40.937Z,10.50
2022-10-22T20:06:09.753Z,9.53
2022-10-22T20:08:38.087Z,8.80
2022-10-22T20:11:07.500Z,9.90
2022-10-22T20:13:35.577Z,9.60
2022-10-22T20:16:02.714Z,9.33
2022-10-22T20:18:29.649Z,9.50
2022-10-22T20:20:56.464Z,10.20
2022-10-22T20:23:23.244Z,9.43
2022-10-22T20:25:50.068Z,8.70
2022-10-22T20:28:17.030Z,8.47
2022-10-22T20:30:45.246Z,8.50
2022-10-22T20:33:12.268Z,9.70
2022-10-22T20:35:39.392Z,9.40
2022-10-22T20:38:07.675Z,8.50
2022-10-22T20:40:34.805Z,8.33
2022-10-22T20:43:02.031Z,8.13
2022-10-22T20:45:29.236Z,7.93
2022-10-22T20:48:02.723Z,7.50
2022-10-22T20:50:32.125Z,8.60
2022-10-22T20:52:59.652Z,8.33
2022-10-22T20:55:27.025Z,9.27
2022-10-22T20:57:54.187Z,9.43
2022-10-22T21:00:21.095Z,7.43
2022-10-22T21:02:47.964Z,5.47
2022-10-22T21:05:14.884Z,6.53
2022-10-22T21:07:42.037Z,6.00
2022-10-22T21:10:09.235Z,5.50
2022-10-22T21:12:36.076Z,5.13
2022-10-22T21:15:02.946Z,6.80
2022-10-22T21:17:29.758Z,5.80
2022-10-22T21:19:56.665Z,5.20
2022-10-22T21:22:23.543Z,5.70
2022-10-22T21:24:50.303Z,5.10
2022-10-22T21:27:17.253Z,5.47
2022-10-22T21:29:44.416Z,5.67
2022-10-22T21:32:11.533Z,5.70
2022-10-22T21:34:39.137Z,5.17
2022-10-22T21:37:06.083Z,5.70
2022-10-22T21:39:32.923Z,5.23
2022-10-22T21:41:59.818Z,5.22
2022-10-22T21:44:26.704Z,4.83
2022-10-22T21:46:53.574Z,5.53
2022-10-22T21:49:20.440Z,5.37
2022-10-22T21:51:47.317Z,5.40
2022-10-22T21:54:14.154Z,5.00
2022-10-22T21:56:41.235Z,5.13
2022-10-22T21:59:08.277Z,5.53
2022-10-22T22:01:35.609Z,5.00
2022-10-22T22:04:03.001Z,5.00
2022-10-22T22:06:33.552Z,4.77
2022-10-22T22:09:01.777Z,4.43
2022-10-22T22:11:29.195Z,5.13
2022-10-22T22:13:57.707Z,4.13
2022-10-22T22:16:31.057Z,4.20
2022-10-22T22:21:39.382Z,4.80
2022-10-22T22:24:07.355Z,4.50
2022-10-22T22:26:34.774Z,5.03
2022-10-22T22:29:01.687Z,4.10
2022-10-22T22:31:32.234Z,4.30
2022-10-22T22:34:13.652Z,3.87
2022-10-22T22:36:46.355Z,4.63
2022-10-22T22:39:15.609Z,4.43
2022-10-22T22:41:43.442Z,4.10
2022-10-22T22:44:10.379Z,4.00
2022-10-22T22:46:37.719Z,3.80
2022-10-22T22:49:05.286Z,4.50
2022-10-22T22:51:32.610Z,4.20
2022-10-22T22:54:00.386Z,3.97
2022-10-22T22:56:30.581Z,3.60
2022-10-22T22:58:57.905Z,3.77
2022-10-22T23:01:29.629Z,4.50
2022-10-22T23:04:07.463Z,4.10
2022-10-22T23:06:39.202Z,4.47
2022-10-22T23:09:08.389Z,4.00
2022-10-22T23:11:35.763Z,4.07
2022-10-22T23:14:05.343Z,3.70
2022-10-22T23:16:34.782Z,3.88
2022-10-22T23:19:03.080Z,4.20
2022-10-22T23:21:32.386Z,3.83
2022-10-22T23:24:02.103Z,3.60
2022-10-22T23:26:32.231Z,4.00
2022-10-22T23:29:07.248Z,4.00
2022-10-22T23:31:34.477Z,4.10
2022-10-22T23:34:01.310Z,3.50
2022-10-22T23:36:28.547Z,4.37
2022-10-22T23:38:55.791Z,4.10
2022-10-22T23:41:22.932Z,4.60
2022-10-22T23:43:50.720Z,3.87
2022-10-22T23:46:17.694Z,3.70
2022-10-22T23:48:44.505Z,3.63
2022-10-22T23:51:14.524Z,3.43
2022-10-22T23:53:42.751Z,3.90
2022-10-22T23:56:12.944Z,3.33
2022-10-22T23:58:39.947Z,4.43
